Time;durP1;ratioP1;P1;durP2;ratioP2;P2;SDS_P1;SDS_P2;PMS_P1;PMS_P2;Temp;Humidity;BMP_temperature;BMP_pressure;BME280_temperature;BME280_humidity;BME280_pressure;Samples;Min_cycle;Max_cycle;Signal;HPM_P1;HPM_P2
2022/10/01 07:13:53;;;;;;;0.85;0.73;;;;;;;;;;10557002;28;20024;-83
2022/10/01 07:18:54;;;;;;;1.10;0.80;;;;;;;;;;10558632;28;20032;-82
2022/10/01 07:23:58;;;;;;;1.90;1.40;;;;;;;;;;10555095;28;20039;-82
2022/10/01 09:41:58;;;;;;;3.60;2.75;;;;;;;;;;10453108;27;20103;-86
2022/10/01 09:58:47;;;;;;;7.25;2.83;;;;;;;;;;10635566;28;20034;-88
2022/10/01 10:04:42;;;;;;;6.85;4.32;;;;;;;;;;10636431;28;20023;-86
2022/10/01 10:10:11;;;;;;;5.15;3.63;;;;;;;;;;10616901;28;20030;-86
2022/10/01 10:15:25;;;;;;;3.60;2.22;;;;;;;;;;10614004;28;20031;-88
2022/10/01 10:20:36;;;;;;;4.93;2.63;;;;;;;;;;10616470;28;20121;-87
2022/10/01 10:25:37;;;;;;;4.60;2.90;;;;;;;;;;10620124;28;20076;-87
2022/10/01 10:30:42;;;;;;;3.85;2.50;;;;;;;;;;10622157;28;20431;-87
2022/10/01 10:35:43;;;;;;;3.97;2.38;;;;;;;;;;10619926;28;20481;-86
2022/10/01 10:40:45;;;;;;;4.07;2.40;;;;;;;;;;10618691;27;20034;-87
2022/10/01 10:45:46;;;;;;;2.78;1.80;;;;;;;;;;10627015;27;20039;-88
2022/10/01 10:50:47;;;;;;;3.10;2.05;;;;;;;;;;10621760;27;20019;-86
2022/10/01 10:55:59;;;;;;;2.90;1.70;;;;;;;;;;10623372;27;20028;-88
2022/10/01 11:01:04;;;;;;;3.08;2.28;;;;;;;;;;10634770;27;20053;-87
2022/10/01 11:06:13;;;;;;;2.83;2.00;;;;;;;;;;10626720;27;20027;-87
2022/10/01 11:12:06;;;;;;;3.08;2.20;;;;;;;;;;10647144;27;20023;-88
2022/10/01 11:17:26;;;;;;;4.38;2.80;;;;;;;;;;10528557;27;20058;-88
2022/10/01 11:22:33;;;;;;;3.95;2.40;;;;;;;;;;10660806;27;20022;-87
2022/10/01 11:27:43;;;;;;;3.50;2.40;;;;;;;;;;10626585;27;20020;-87
2022/10/01 11:32:47;;;;;;;4.30;2.72;;;;;;;;;;10619504;27;20033;-87
2022/10/01 11:37:58;;;;;;;3.80;2.47;;;;;;;;;;10618915;27;20439;-86
2022/10/01 11:43:00;;;;;;;;;;;;;;;;;;10634749;27;20019;-85
2022/10/01 11:48:03;;;;;;;;;;;;;;;;;;10659318;27;19930;-83
2022/10/01 11:53:03;;;;;;;;;;;;;;;;;;10653403;27;19939;-85
2022/10/01 12:03:24;;;;;;;;;;;;;;;;;;10641358;27;19903;-84
2022/10/01 12:08:26;;;;;;;;;;;;;;;;;;10618514;27;19907;-85
2022/10/01 12:13:27;;;;;;;;;;;;;;;;;;10621296;27;20419;-85
2022/10/01 12:18:27;;;;;;;;;;;;;;;;;;10621190;27;19913;-84
2022/10/01 12:23:29;;;;;;;;;;;;;;;;;;10638108;27;19903;-84
2022/10/01 12:28:30;;;;;;;;;;;;;;;;;;10618168;27;19908;-84
2022/10/01 12:33:30;;;;;;;;;;;;;;;;;;10635933;27;19903;-85
2022/10/01 12:38:31;;;;;;;;;;;;;;;;;;10615977;27;20695;-85
2022/10/01 12:43:34;;;;;;;;;;;;;;;;;;10618237;27;19923;-85
2022/10/01 12:48:35;;;;;;;;;;;;;;;;;;10619308;27;19891;-85
2022/10/01 12:53:36;;;;;;;;;;;;;;;;;;10618560;27;19903;-85
2022/10/01 12:58:37;;;;;;;;;;;;;;;;;;10618408;27;20276;-85
2022/10/01 13:03:38;;;;;;;;;;;;;;;;;;10619075;27;19911;-84
2022/10/01 13:08:39;;;;;;;;;;;;;;;;;;10616508;27;19918;-86
2022/10/01 13:13:40;;;;;;;;;;;;;;;;;;10619590;27;19909;-86
2022/10/01 13:18:41;;;;;;;;;;;;;;;;;;10616489;27;20279;-86
2022/10/01 13:23:42;;;;;;;;;;;;;;;;;;10618616;27;19988;-85
2022/10/01 13:28:43;;;;;;;;;;;;;;;;;;10619319;27;19907;-85
2022/10/01 13:33:44;;;;;;;;;;;;;;;;;;10616732;27;19907;-85
2022/10/01 13:38:46;;;;;;;;;;;;;;;;;;10615673;27;19918;-85
2022/10/01 13:43:47;;;;;;;;;;;;;;;;;;10616877;27;19903;-85
2022/10/01 13:48:48;;;;;;;;;;;;;;;;;;10619396;27;20286;-84
2022/10/01 13:53:51;;;;;;;;;;;;;;;;;;10621632;27;19932;-85
2022/10/01 13:58:52;;;;;;;;;;;;;;;;;;10616663;28;20002;-85
2022/10/01 14:03:53;;;;;;;;;;;;;;;;;;10577844;28;19910;-84
2022/10/01 14:08:54;;;;;;;;;;;;;;;;;;10573610;28;19908;-86
2022/10/01 14:19:14;;;;;;;;;;;;;;;;;;10597359;28;19904;-85
2022/10/01 14:24:15;;;;;;;;;;;;;;;;;;10584963;28;20278;-86
2022/10/01 14:29:16;;;;;;;;;;;;;;;;;;10580684;28;19910;-86
2022/10/01 14:34:17;;;;;;;;;;;;;;;;;;10580833;28;19904;-86
2022/10/01 14:39:18;;;;;;;;;;;;;;;;;;10579880;28;20332;-85
2022/10/01 14:44:20;;;;;;;;;;;;;;;;;;10596906;28;20266;-86
2022/10/01 14:49:21;;;;;;;;;;;;;;;;;;10579851;28;19903;-85
2022/10/01 14:54:22;;;;;;;;;;;;;;;;;;10605799;28;19907;-85
2022/10/01 14:59:23;;;;;;;;;;;;;;;;;;10584059;28;19953;-85
2022/10/01 15:04:24;;;;;;;;;;;;;;;;;;10587662;28;19911;-86
2022/10/01 15:09:25;;;;;;;;;;;;;;;;;;10585605;28;19910;-86
2022/10/01 15:14:26;;;;;;;;;;;;;;;;;;10581801;28;19971;-85
2022/10/01 15:19:27;;;;;;;;;;;;;;;;;;10600782;28;19904;-85
2022/10/01 15:24:28;;;;;;;;;;;;;;;;;;10585017;28;19981;-85
2022/10/01 15:29:29;;;;;;;;;;;;;;;;;;10596803;28;19929;-85
2022/10/01 15:34:30;;;;;;;;;;;;;;;;;;10579532;28;19911;-86
2022/10/01 15:39:31;;;;;;;;;;;;;;;;;;10575592;28;20358;-85
2022/10/01 15:44:32;;;;;;;;;;;;;;;;;;10573567;28;19911;-86
2022/10/01 15:49:33;;;;;;;;;;;;;;;;;;10574454;28;19972;-85
2022/10/01 15:54:34;;;;;;;;;;;;;;;;;;10575112;28;19964;-85
2022/10/01 15:59:35;;;;;;;;;;;;;;;;;;10577438;28;19907;-85
2022/10/01 16:04:36;;;;;;;;;;;;;;;;;;10575806;28;19914;-85
2022/10/01 16:09:37;;;;;;;;;;;;;;;;;;10574341;28;19956;-85
2022/10/01 16:14:40;;;;;;;;;;;;;;;;;;10575526;28;20352;-85
2022/10/01 16:19:41;;;;;;;;;;;;;;;;;;10578171;28;19911;-85
2022/10/01 16:24:42;;;;;;;;;;;;;;;;;;10576885;28;19912;-85
2022/10/01 16:29:43;;;;;;;;;;;;;;;;;;10577204;28;20270;-85
2022/10/01 16:34:44;;;;;;;;;;;;;;;;;;10578785;28;19910;-85
2022/10/01 16:39:45;;;;;;;;;;;;;;;;;;10596324;28;19918;-84
2022/10/01 16:44:46;;;;;;;;;;;;;;;;;;10577542;28;19908;-84
2022/10/01 16:49:47;;;;;;;;;;;;;;;;;;10606334;28;20011;-83
2022/10/01 16:54:48;;;;;;;;;;;;;;;;;;10603649;28;19935;-83
2022/10/01 16:59:49;;;;;;;;;;;;;;;;;;10586386;28;19974;-85
2022/10/01 17:04:50;;;;;;;;;;;;;;;;;;10582120;28;19907;-85
2022/10/01 17:09:51;;;;;;;;;;;;;;;;;;10584665;28;19971;-85
2022/10/01 17:14:52;;;;;;;;;;;;;;;;;;10588256;28;20122;-85
2022/10/01 17:19:53;;;;;;;;;;;;;;;;;;10587830;28;19908;-85
2022/10/01 17:24:53;;;;;;;;;;;;;;;;;;10585413;28;20053;-85
2022/10/01 17:29:56;;;;;;;;;;;;;;;;;;10590678;28;19979;-85
2022/10/01 17:34:57;;;;;;;;;;;;;;;;;;10597715;28;19904;-84
2022/10/01 17:39:58;;;;;;;;;;;;;;;;;;10594397;28;19912;-84
2022/10/01 17:44:59;;;;;;;;;;;;;;;;;;10579456;28;19914;-84
2022/10/01 17:50:01;;;;;;;;;;;;;;;;;;10573858;28;19904;-84
2022/10/01 17:55:02;;;;;;;;;;;;;;;;;;10574772;28;19907;-84
2022/10/01 18:00:03;;;;;;;;;;;;;;;;;;10592395;28;19903;-85
2022/10/01 18:05:07;;;;;;;;;;;;;;;;;;10574121;28;19914;-86
2022/10/01 18:10:08;;;;;;;;;;;;;;;;;;10588050;28;20423;-85
2022/10/01 18:15:09;;;;;;;;;;;;;;;;;;10570478;28;20001;-85
2022/10/01 18:20:10;;;;;;;;;;;;;;;;;;10569899;28;19977;-86
2022/10/01 18:25:13;;;;;;;;;;;;;;;;;;10569389;28;19912;-84
2022/10/01 18:30:14;;;;;;;;;;;;;;;;;;10567140;28;19904;-84
2022/10/01 18:35:15;;;;;;;;;;;;;;;;;;10568437;28;19904;-84
2022/10/01 18:40:16;;;;;;;;;;;;;;;;;;10567278;28;20007;-84
2022/10/01 18:45:17;;;;;;;;;;;;;;;;;;10591462;28;19914;-83
2022/10/01 18:50:18;;;;;;;;;;;;;;;;;;10574332;28;19903;-84
2022/10/01 18:55:19;;;;;;;;;;;;;;;;;;10573666;28;19910;-84
2022/10/01 19:00:23;;;;;;;;;;;;;;;;;;10575354;28;19903;-84
2022/10/01 19:05:25;;;;;;;;;;;;;;;;;;10578832;28;19907;-84
2022/10/01 19:10:26;;;;;;;;;;;;;;;;;;10584593;28;20260;-84
2022/10/01 19:15:27;;;;;;;;;;;;;;;;;;10592082;28;19899;-84
2022/10/01 19:20:28;;;;;;;;;;;;;;;;;;10589230;28;19904;-85
